Time,TemperatureF,DewpointF,PressureIn,WindDirection,WindDirectionDegrees,WindSpeedMPH,WindSpeedGustMPH,Humidity,HourlyPrecipIn,Conditions,Clouds,dailyrainin,SolarRadiationWatts/m^2,SoftwareType,DateUTC
2013-02-17 00:03:00,32.4,22.7,30.26,SSE,155,2.0,2.0,67,0.00,,,0.00,0,Wunderground v.1.15,2013-02-17 06:03:00,
2013-02-17 00:08:00,32.4,22.7,30.26,SSE,152,2.0,5.0,67,0.00,,,0.00,0,Wunderground v.1.15,2013-02-17 06:08:00,
2013-02-17 00:18:00,32.4,22.7,30.25,SE,145,3.0,3.0,67,0.00,,,0.00,0,Wunderground v.1.15,2013-02-17 06:18:00,
2013-02-17 00:28:00,32.3,22.6,30.25,SSE,168,3.0,3.0,67,0.00,,,0.00,0,Wunderground v.1.15,2013-02-17 06:28:00,
2013-02-17 00:38:00,32.3,22.6,30.25,SSE,165,2.0,2.0,67,0.00,,,0.00,0,Wunderground v.1.15,2013-02-17 06:38:00,
2013-02-17 00:43:00,32.3,22.6,30.25,SSE,162,2.0,3.0,67,0.00,,,0.00,0,Wunderground v.1.15,2013-02-17 06:43:00,
2013-02-17 00:53:00,32.3,22.6,30.25,SSE,159,2.0,2.0,67,0.00,,,0.00,0,Wunderground v.1.15,2013-02-17 06:53:00,
2013-02-17 01:03:00,32.3,22.2,30.25,SSE,159,3.0,5.0,66,0.00,,,0.00,0,Wunderground v.1.15,2013-02-17 07:03:00,
2013-02-17 01:13:00,32.4,22.3,30.25,SSE,153,4.0,6.0,66,0.00,,,0.00,0,Wunderground v.1.15,2013-02-17 07:13:00,
2013-02-17 01:18:00,32.4,22.3,30.25,SSE,157,4.0,4.0,66,0.00,,,0.00,0,Wunderground v.1.15,2013-02-17 07:18:00,
2013-02-17 01:28:00,32.6,22.5,30.24,SE,144,4.0,4.0,66,0.00,,,0.00,0,Wunderground v.1.15,2013-02-17 07:28:00,
2013-02-17 01:38:00,32.5,22.4,30.24,SSE,148,4.0,4.0,66,0.00,,,0.00,0,Wunderground v.1.15,2013-02-17 07:38:00,
2013-02-17 01:48:00,32.5,22.4,30.24,SSE,155,3.0,3.0,66,0.00,,,0.00,0,Wunderground v.1.15,2013-02-17 07:48:00,
2013-02-17 01:53:00,32.6,22.5,30.24,SSE,153,3.0,3.0,66,0.00,,,0.00,0,Wunderground v.1.15,2013-02-17 07:53:00,
2013-02-17 02:03:00,32.6,22.5,30.24,SSE,149,2.0,3.0,66,0.00,,,0.00,0,Wunderground v.1.15,2013-02-17 08:03:00,
2013-02-17 02:13:00,32.6,22.5,30.24,SE,138,3.0,4.0,66,0.00,,,0.00,0,Wunderground v.1.15,2013-02-17 08:13:00,
2013-02-17 02:18:00,32.7,22.2,30.24,SE,140,4.0,4.0,65,0.00,,,0.00,0,Wunderground v.1.15,2013-02-17 08:18:00,
2013-02-17 02:28:00,32.7,22.2,30.23,SE,137,4.0,4.0,65,0.00,,,0.00,0,Wunderground v.1.15,2013-02-17 08:28:00,
2013-02-17 02:38:00,32.8,22.0,30.23,SE,144,4.0,4.0,64,0.00,,,0.00,0,Wunderground v.1.15,2013-02-17 08:38:00,
2013-02-17 02:43:00,32.9,22.0,30.23,SE,144,3.0,6.0,64,0.00,,,0.00,0,Wunderground v.1.15,2013-02-17 08:43:00,
2013-02-17 02:53:00,32.9,22.0,30.22,SE,145,4.0,6.0,64,0.00,,,0.00,0,Wunderground v.1.15,2013-02-17 08:53:00,
2013-02-17 03:03:00,32.9,22.0,30.22,SE,131,4.0,6.0,64,0.00,,,0.00,0,Wunderground v.1.15,2013-02-17 09:03:00,
2013-02-17 03:13:00,32.9,21.7,30.22,SE,146,5.0,6.0,63,0.00,,,0.00,0,Wunderground v.1.15,2013-02-17 09:13:00,
2013-02-17 03:22:00,32.8,22.0,30.22,SE,144,4.0,4.0,64,0.00,,,0.00,0,Wunderground v.1.15,2013-02-17 09:22:00,
2013-02-17 03:28:00,32.7,21.9,30.21,SE,137,4.0,4.0,64,0.00,,,0.00,0,Wunderground v.1.15,2013-02-17 09:28:00,
2013-02-17 03:38:00,32.4,21.9,30.21,SE,137,4.0,4.0,65,0.00,,,0.00,0,Wunderground v.1.15,2013-02-17 09:38:00,
2013-02-17 03:48:00,32.3,21.8,30.21,SE,128,3.0,3.0,65,0.00,,,0.00,0,Wunderground v.1.15,2013-02-17 09:48:00,
2013-02-17 03:57:00,32.3,21.8,30.21,SE,138,4.0,4.0,65,0.00,,,0.00,0,Wunderground v.1.15,2013-02-17 09:57:00,
2013-02-17 04:03:00,32.2,21.7,30.20,SE,135,4.0,4.0,65,0.00,,,0.00,0,Wunderground v.1.15,2013-02-17 10:03:00,
2013-02-17 04:12:00,32.1,21.7,30.20,SE,137,4.0,4.0,65,0.00,,,0.00,0,Wunderground v.1.15,2013-02-17 10:12:00,
2013-02-17 04:22:00,31.7,21.6,30.20,SE,139,2.0,3.0,66,0.00,,,0.00,0,Wunderground v.1.15,2013-02-17 10:22:00,
2013-02-17 04:28:00,31.5,21.4,30.20,SE,141,2.0,2.0,66,0.00,,,0.00,0,Wunderground v.1.15,2013-02-17 10:28:00,
2013-02-17 04:37:00,31.2,21.5,30.20,SE,133,4.0,4.0,67,0.00,,,0.00,0,Wunderground v.1.15,2013-02-17 10:37:00,
2013-02-17 04:47:00,30.6,21.3,30.21,ESE,122,3.0,3.0,68,0.00,,,0.00,0,Wunderground v.1.15,2013-02-17 10:47:00,
2013-02-17 04:52:00,30.6,21.3,30.21,ESE,122,2.0,3.0,68,0.00,,,0.00,0,Wunderground v.1.15,2013-02-17 10:52:00,
2013-02-17 05:02:00,30.6,21.3,30.22,ESE,111,2.0,2.0,68,0.00,,,0.00,0,Wunderground v.1.15,2013-02-17 11:02:00,
2013-02-17 05:12:00,30.6,21.3,30.22,ESE,117,2.0,2.0,68,0.00,,,0.00,0,Wunderground v.1.15,2013-02-17 11:12:00,
2013-02-17 05:17:00,30.6,21.3,30.22,ESE,119,2.0,3.0,68,0.00,,,0.00,0,Wunderground v.1.15,2013-02-17 11:17:00,
2013-02-17 05:27:00,30.4,21.1,30.21,ESE,115,2.0,2.0,68,0.00,,,0.00,0,Wunderground v.1.15,2013-02-17 11:27:00,
2013-02-17 05:37:00,30.2,21.2,30.21,SE,126,3.0,3.0,69,0.00,,,0.00,0,Wunderground v.1.15,2013-02-17 11:37:00,
2013-02-17 05:47:00,30.2,21.2,30.20,SE,139,4.0,4.0,69,0.00,,,0.00,0,Wunderground v.1.15,2013-02-17 11:47:00,
2013-02-17 05:52:00,30.1,21.5,30.20,SE,135,4.0,5.0,70,0.00,,,0.00,0,Wunderground v.1.15,2013-02-17 11:52:00,
2013-02-17 06:02:00,30.0,21.4,30.20,SE,134,4.0,6.0,70,0.00,,,0.00,0,Wunderground v.1.15,2013-02-17 12:02:00,
2013-02-17 06:07:00,29.9,21.3,30.20,SE,133,3.0,3.0,70,0.00,,,0.00,0,Wunderground v.1.15,2013-02-17 12:07:00,
2013-02-17 06:17:00,29.7,21.4,30.20,SE,140,3.0,3.0,71,0.00,,,0.00,0,Wunderground v.1.15,2013-02-17 12:17:00,
2013-02-17 06:27:00,29.6,21.3,30.20,SE,132,4.0,4.0,71,0.00,,,0.00,0,Wunderground v.1.15,2013-02-17 12:27:00,
2013-02-17 06:37:00,29.4,21.2,30.20,SE,143,3.0,3.0,71,0.00,,,0.00,0,Wunderground v.1.15,2013-02-17 12:37:00,
2013-02-17 06:47:00,29.3,21.4,30.20,SE,138,4.0,5.0,72,0.00,,,0.00,0,Wunderground v.1.15,2013-02-17 12:47:00,
2013-02-17 06:52:00,29.2,21.3,30.19,SE,139,4.0,5.0,72,0.00,,,0.00,0,Wunderground v.1.15,2013-02-17 12:52:00,
2013-02-17 07:02:00,29.1,21.2,30.19,SE,138,4.0,4.0,72,0.00,,,0.00,5,Wunderground v.1.15,2013-02-17 13:02:00,
2013-02-17 07:12:00,29.2,21.3,30.20,SE,142,4.0,5.0,72,0.00,,,0.00,11,Wunderground v.1.15,2013-02-17 13:12:00,
2013-02-17 07:22:00,29.3,21.4,30.19,SE,134,4.0,5.0,72,0.00,,,0.00,18,Wunderground v.1.15,2013-02-17 13:22:00,
2013-02-17 07:27:00,29.4,21.5,30.19,SE,138,4.0,4.0,72,0.00,,,0.00,23,Wunderground v.1.15,2013-02-17 13:27:00,
2013-02-17 07:32:00,29.5,21.6,30.19,SE,142,5.0,5.0,72,0.00,,,0.00,49,Wunderground v.1.15,2013-02-17 13:32:00,
2013-02-17 07:42:00,29.9,21.6,30.19,SE,141,4.0,4.0,71,0.00,,,0.00,91,Wunderground v.1.15,2013-02-17 13:42:00,
2013-02-17 07:47:00,30.1,21.8,30.19,SE,139,4.0,4.0,71,0.00,,,0.00,109,Wunderground v.1.15,2013-02-17 13:47:00,
2013-02-17 07:57:00,30.6,22.0,30.19,SE,141,5.0,5.0,70,0.00,,,0.00,132,Wunderground v.1.15,2013-02-17 13:57:00,
2013-02-17 08:03:00,31.0,22.0,30.19,SE,138,4.0,5.0,69,0.00,,,0.00,146,Wunderground v.1.15,2013-02-17 14:03:00,
2013-02-17 08:08:00,31.4,22.1,30.19,SE,142,4.0,4.0,68,0.00,,,0.00,139,Wunderground v.1.15,2013-02-17 14:08:00,
2013-02-17 08:13:00,31.8,22.1,30.19,SSE,148,4.0,7.0,67,0.00,,,0.00,160,Wunderground v.1.15,2013-02-17 14:13:00,
2013-02-17 08:23:00,32.7,22.6,30.19,SE,145,4.0,7.0,66,0.00,,,0.00,218,Wunderground v.1.15,2013-02-17 14:23:00,
2013-02-17 08:33:00,33.6,22.7,30.19,SSE,151,5.0,5.0,64,0.00,,,0.00,250,Wunderground v.1.15,2013-02-17 14:33:00,
2013-02-17 08:43:00,35.0,23.3,30.18,SSE,167,5.0,5.0,62,0.00,,,0.00,279,Wunderground v.1.15,2013-02-17 14:43:00,
2013-02-17 08:48:00,35.6,23.5,30.18,SSE,156,5.0,6.0,61,0.00,,,0.00,297,Wunderground v.1.15,2013-02-17 14:48:00,
2013-02-17 08:58:00,36.5,23.1,30.17,SSE,153,6.0,6.0,58,0.00,,,0.00,327,Wunderground v.1.15,2013-02-17 14:58:00,
2013-02-17 09:03:00,36.8,23.4,30.17,SSE,155,6.0,8.0,58,0.00,,,0.00,345,Wunderground v.1.15,2013-02-17 15:03:00,
2013-02-17 09:13:00,37.6,23.7,30.17,South,173,6.0,6.0,57,0.00,,,0.00,373,Wunderground v.1.15,2013-02-17 15:13:00,
2013-02-17 09:23:00,38.4,23.6,30.17,SSE,168,6.0,9.0,55,0.00,,,0.00,404,Wunderground v.1.15,2013-02-17 15:23:00,
2013-02-17 09:28:00,39.0,24.2,30.17,SSE,164,6.0,6.0,55,0.00,,,0.00,417,Wunderground v.1.15,2013-02-17 15:28:00,
2013-02-17 09:38:00,40.1,24.3,30.17,South,176,5.0,5.0,53,0.00,,,0.00,446,Wunderground v.1.15,2013-02-17 15:38:00,
2013-02-17 09:48:00,41.5,25.2,30.17,SSW,192,5.0,5.0,52,0.00,,,0.00,471,Wunderground v.1.15,2013-02-17 15:48:00,
2013-02-17 09:53:00,41.8,25.0,30.16,South,187,5.0,8.0,51,0.00,,,0.00,485,Wunderground v.1.15,2013-02-17 15:53:00,
2013-02-17 10:03:00,42.3,25.0,30.16,SSW,208,5.0,7.0,50,0.00,,,0.00,510,Wunderground v.1.15,2013-02-17 16:03:00,
2013-02-17 10:13:00,42.9,25.5,30.15,SSW,192,5.0,5.0,50,0.00,,,0.00,534,Wunderground v.1.15,2013-02-17 16:13:00,
2013-02-17 10:23:00,43.3,25.9,30.15,South,176,6.0,6.0,50,0.00,,,0.00,554,Wunderground v.1.15,2013-02-17 16:23:00,
2013-02-17 10:33:00,43.9,26.9,30.15,South,184,5.0,6.0,51,0.00,,,0.00,575,Wunderground v.1.15,2013-02-17 16:33:00,
2013-02-17 10:42:00,44.5,27.0,30.15,SE,144,5.0,8.0,50,0.00,,,0.00,592,Wunderground v.1.15,2013-02-17 16:42:00,
2013-02-17 10:48:00,44.8,27.8,30.15,SSW,195,5.0,8.0,51,0.00,,,0.00,599,Wunderground v.1.15,2013-02-17 16:48:00,
2013-02-17 10:58:00,45.4,27.3,30.15,SSE,164,6.0,6.0,49,0.00,,,0.00,615,Wunderground v.1.15,2013-02-17 16:58:00,
2013-02-17 11:07:00,45.9,27.8,30.14,SSE,167,6.0,6.0,49,0.00,,,0.00,635,Wunderground v.1.15,2013-02-17 17:07:00,
2013-02-17 11:13:00,46.4,28.3,30.14,South,182,5.0,6.0,49,0.00,,,0.00,640,Wunderground v.1.15,2013-02-17 17:13:00,
2013-02-17 11:23:00,47.3,29.1,30.13,SSE,167,5.0,5.0,49,0.00,,,0.00,652,Wunderground v.1.15,2013-02-17 17:23:00,
2013-02-17 11:32:00,47.6,28.3,30.13,SSW,192,6.0,9.0,47,0.00,,,0.00,661,Wunderground v.1.15,2013-02-17 17:32:00,
2013-02-17 11:38:00,47.8,28.5,30.12,SSE,150,6.0,6.0,47,0.00,,,0.00,666,Wunderground v.1.15,2013-02-17 17:38:00,
2013-02-17 11:47:00,48.8,29.4,30.12,South,173,6.0,6.0,47,0.00,,,0.00,670,Wunderground v.1.15,2013-02-17 17:47:00,
2013-02-17 11:57:00,48.8,28.9,30.11,South,171,7.0,7.0,46,0.00,,,0.00,684,Wunderground v.1.15,2013-02-17 17:57:00,
2013-02-17 12:07:00,49.8,29.3,30.10,South,191,6.0,8.0,45,0.00,,,0.00,693,Wunderground v.1.15,2013-02-17 18:07:00,
2013-02-17 12:12:00,49.8,30.4,30.10,SSE,166,6.0,8.0,47,0.00,,,0.00,687,Wunderground v.1.15,2013-02-17 18:12:00,
2013-02-17 12:22:00,50.8,30.2,30.09,SSW,211,5.0,5.0,45,0.00,,,0.00,689,Wunderground v.1.15,2013-02-17 18:22:00,
2013-02-17 12:32:00,50.7,29.6,30.08,SE,139,6.0,7.0,44,0.00,,,0.00,689,Wunderground v.1.15,2013-02-17 18:32:00,
2013-02-17 12:37:00,51.0,29.8,30.08,SE,144,6.0,6.0,44,0.00,,,0.00,687,Wunderground v.1.15,2013-02-17 18:37:00,
2013-02-17 12:47:00,51.1,29.9,30.07,SSE,152,5.0,8.0,44,0.00,,,0.00,687,Wunderground v.1.15,2013-02-17 18:47:00,
2013-02-17 12:57:00,51.8,30.6,30.07,SE,141,6.0,6.0,44,0.00,,,0.00,682,Wunderground v.1.15,2013-02-17 18:57:00,
2013-02-17 13:02:00,52.1,30.3,30.06,SSE,154,7.0,8.0,43,0.00,,,0.00,682,Wunderground v.1.15,2013-02-17 19:02:00,
2013-02-17 13:12:00,52.4,30.5,30.05,SE,144,7.0,7.0,43,0.00,,,0.00,673,Wunderground v.1.15,2013-02-17 19:12:00,
2013-02-17 13:22:00,53.3,32.5,30.04,SE,136,7.0,8.0,45,0.00,,,0.00,666,Wunderground v.1.15,2013-02-17 19:22:00,
2013-02-17 13:27:00,53.3,30.2,30.04,SSE,147,7.0,7.0,41,0.00,,,0.00,659,Wunderground v.1.15,2013-02-17 19:27:00,
2013-02-17 13:37:00,54.0,32.0,30.03,SSE,153,7.0,10.0,43,0.00,,,0.00,652,Wunderground v.1.15,2013-02-17 19:37:00,
2013-02-17 13:47:00,54.2,31.0,30.03,SSE,150,8.0,8.0,41,0.00,,,0.00,635,Wunderground v.1.15,2013-02-17 19:47:00,
2013-02-17 13:52:00,54.5,31.3,30.02,SSE,162,8.0,8.0,41,0.00,,,0.00,628,Wunderground v.1.15,2013-02-17 19:52:00,
2013-02-17 14:02:00,55.5,31.5,30.02,SSE,156,7.0,11.0,40,0.00,,,0.00,613,Wunderground v.1.15,2013-02-17 20:02:00,
2013-02-17 14:12:00,55.2,31.3,30.01,SE,144,9.0,14.0,40,0.00,,,0.00,596,Wunderground v.1.15,2013-02-17 20:12:00,
2013-02-17 14:17:00,55.3,31.4,30.00,SE,146,9.0,10.0,40,0.00,,,0.00,587,Wunderground v.1.15,2013-02-17 20:17:00,
2013-02-17 14:27:00,56.5,33.1,30.00,SE,146,7.0,10.0,41,0.00,,,0.00,570,Wunderground v.1.15,2013-02-17 20:27:00,
2013-02-17 14:37:00,56.6,32.5,29.99,SSE,158,8.0,8.0,40,0.00,,,0.00,547,Wunderground v.1.15,2013-02-17 20:37:00,
2013-02-17 14:47:00,57.1,32.4,29.99,SE,144,7.0,9.0,39,0.00,,,0.00,522,Wunderground v.1.15,2013-02-17 20:47:00,
2013-02-17 14:52:00,57.0,32.3,29.99,SSE,157,6.0,9.0,39,0.00,,,0.00,527,Wunderground v.1.15,2013-02-17 20:52:00,
2013-02-17 15:02:00,57.5,32.1,29.99,SSE,161,7.0,8.0,38,0.00,,,0.00,450,Wunderground v.1.15,2013-02-17 21:02:00,
2013-02-17 15:12:00,58.0,32.5,29.99,SSW,193,7.0,7.0,38,0.00,,,0.00,475,Wunderground v.1.15,2013-02-17 21:12:00,
2013-02-17 15:17:00,58.2,32.0,29.98,SSE,163,6.0,6.0,37,0.00,,,0.00,429,Wunderground v.1.15,2013-02-17 21:17:00,
2013-02-17 15:27:00,58.3,32.8,29.98,SE,146,6.0,6.0,38,0.00,,,0.00,388,Wunderground v.1.15,2013-02-17 21:27:00,
2013-02-17 15:37:00,58.3,32.8,29.97,SE,140,7.0,7.0,38,0.00,,,0.00,316,Wunderground v.1.15,2013-02-17 21:37:00,
2013-02-17 15:47:00,58.2,32.0,29.97,SE,142,6.0,6.0,37,0.00,,,0.00,352,Wunderground v.1.15,2013-02-17 21:47:00,
2013-02-17 15:58:00,58.9,32.7,29.97,SSE,163,5.0,6.0,37,0.00,,,0.00,250,Wunderground v.1.15,2013-02-17 21:58:00,
2013-02-17 16:03:00,58.9,32.7,29.97,SE,141,5.0,6.0,37,0.00,,,0.00,257,Wunderground v.1.15,2013-02-17 22:03:00,
2013-02-17 16:08:00,58.9,32.7,29.96,SE,139,4.0,5.0,37,0.00,,,0.00,285,Wunderground v.1.15,2013-02-17 22:08:00,
2013-02-17 16:18:00,58.8,32.6,29.96,SSE,152,6.0,6.0,37,0.00,,,0.00,214,Wunderground v.1.15,2013-02-17 22:18:00,
2013-02-17 16:28:00,59.1,32.8,29.96,SSE,165,4.0,6.0,37,0.00,,,0.00,186,Wunderground v.1.15,2013-02-17 22:28:00,
2013-02-17 16:38:00,59.1,32.1,29.95,South,180,7.0,7.0,36,0.00,,,0.00,128,Wunderground v.1.15,2013-02-17 22:38:00,
2013-02-17 16:43:00,58.9,32.7,29.95,South,188,8.0,8.0,37,0.00,,,0.00,120,Wunderground v.1.15,2013-02-17 22:43:00,
2013-02-17 16:53:00,59.0,32.7,29.95,SSE,160,6.0,7.0,37,0.00,,,0.00,135,Wunderground v.1.15,2013-02-17 22:53:00,
2013-02-17 17:03:00,58.7,33.1,29.94,South,170,4.0,5.0,38,0.00,,,0.00,83,Wunderground v.1.15,2013-02-17 23:03:00,
2013-02-17 17:13:00,57.8,33.6,29.94,SE,142,2.0,6.0,40,0.00,,,0.00,47,Wunderground v.1.15,2013-02-17 23:13:00,
2013-02-17 17:18:00,57.4,32.6,29.94,SE,135,3.0,3.0,39,0.00,,,0.00,39,Wunderground v.1.15,2013-02-17 23:18:00,
2013-02-17 17:28:00,56.6,32.5,29.94,SE,140,4.0,4.0,40,0.00,,,0.00,25,Wunderground v.1.15,2013-02-17 23:28:00,
2013-02-17 17:38:00,55.9,32.5,29.94,SE,142,4.0,5.0,41,0.00,,,0.00,16,Wunderground v.1.15,2013-02-17 23:38:00,
2013-02-17 17:43:00,55.6,32.8,29.93,SE,132,3.0,5.0,42,0.00,,,0.00,9,Wunderground v.1.15,2013-02-17 23:43:00,
2013-02-17 17:53:00,54.4,32.9,29.93,SE,137,3.0,5.0,44,0.00,,,0.00,0,Wunderground v.1.15,2013-02-17 23:53:00,
2013-02-17 18:03:00,53.5,32.7,29.93,SE,132,3.0,4.0,45,0.00,,,0.00,0,Wunderground v.1.15,2013-02-18 00:03:00,
2013-02-17 18:13:00,53.2,32.4,29.93,SE,144,4.0,4.0,45,0.00,,,0.00,0,Wunderground v.1.15,2013-02-18 00:13:00,
2013-02-17 18:23:00,52.9,32.7,29.93,SE,130,4.0,5.0,46,0.00,,,0.00,0,Wunderground v.1.15,2013-02-18 00:23:00,
2013-02-17 18:33:00,52.5,32.3,29.92,SE,136,4.0,6.0,46,0.00,,,0.00,0,Wunderground v.1.15,2013-02-18 00:33:00,
2013-02-17 18:43:00,53.1,32.3,29.92,SE,134,5.0,5.0,45,0.00,,,0.00,0,Wunderground v.1.15,2013-02-18 00:43:00,
2013-02-17 18:52:00,52.8,32.0,29.92,SSE,153,5.0,5.0,45,0.00,,,0.00,0,Wunderground v.1.15,2013-02-18 00:52:00,
2013-02-17 19:02:00,52.5,32.3,29.91,SE,140,5.0,5.0,46,0.00,,,0.00,0,Wunderground v.1.15,2013-02-18 01:02:00,
2013-02-17 19:08:00,52.3,32.1,29.91,SE,140,5.0,5.0,46,0.00,,,0.00,0,Wunderground v.1.15,2013-02-18 01:08:00,
2013-02-17 19:18:00,51.8,32.2,29.91,SE,130,5.0,7.0,47,0.00,,,0.00,0,Wunderground v.1.15,2013-02-18 01:18:00,
2013-02-17 19:27:00,51.4,31.8,29.91,SSE,163,5.0,5.0,47,0.00,,,0.00,0,Wunderground v.1.15,2013-02-18 01:27:00,
2013-02-17 19:37:00,51.3,31.7,29.90,SSE,162,5.0,5.0,47,0.00,,,0.00,0,Wunderground v.1.15,2013-02-18 01:37:00,
2013-02-17 19:42:00,51.4,31.8,29.90,SSE,163,5.0,5.0,47,0.00,,,0.00,0,Wunderground v.1.15,2013-02-18 01:42:00,
2013-02-17 19:52:00,51.9,31.7,29.90,South,171,6.0,12.0,46,0.00,,,0.00,0,Wunderground v.1.15,2013-02-18 01:52:00,
2013-02-17 20:02:00,52.2,31.5,29.89,SSE,163,6.0,6.0,45,0.00,,,0.00,0,Wunderground v.1.15,2013-02-18 02:02:00,
2013-02-17 20:07:00,52.2,31.5,29.89,SSE,161,5.0,5.0,45,0.00,,,0.00,0,Wunderground v.1.15,2013-02-18 02:07:00,
2013-02-17 20:17:00,52.3,31.6,29.89,SSE,155,6.0,8.0,45,0.00,,,0.00,0,Wunderground v.1.15,2013-02-18 02:17:00,
2013-02-17 20:27:00,52.6,31.3,29.89,SSE,159,7.0,7.0,44,0.00,,,0.00,0,Wunderground v.1.15,2013-02-18 02:27:00,
2013-02-17 20:32:00,52.5,31.2,29.89,South,178,7.0,8.0,44,0.00,,,0.00,0,Wunderground v.1.15,2013-02-18 02:32:00,
2013-02-17 20:42:00,52.7,31.4,29.89,SSE,163,8.0,8.0,44,0.00,,,0.00,0,Wunderground v.1.15,2013-02-18 02:42:00,
2013-02-17 20:52:00,52.8,31.5,29.89,SSE,165,6.0,7.0,44,0.00,,,0.00,0,Wunderground v.1.15,2013-02-18 02:52:00,
2013-02-17 21:02:00,53.0,31.1,29.88,SSE,163,6.0,6.0,43,0.00,,,0.00,0,Wunderground v.1.15,2013-02-18 03:02:00,
2013-02-17 21:07:00,53.0,31.1,29.88,South,175,6.0,7.0,43,0.00,,,0.00,0,Wunderground v.1.15,2013-02-18 03:07:00,
2013-02-17 21:17:00,52.7,30.8,29.89,South,181,6.0,6.0,43,0.00,,,0.00,0,Wunderground v.1.15,2013-02-18 03:17:00,
2013-02-17 21:27:00,52.7,31.4,29.88,South,182,6.0,6.0,44,0.00,,,0.00,0,Wunderground v.1.15,2013-02-18 03:27:00,
2013-02-17 21:37:00,52.4,31.1,29.88,South,172,6.0,7.0,44,0.00,,,0.00,0,Wunderground v.1.15,2013-02-18 03:37:00,
2013-02-17 21:47:00,52.4,31.1,29.88,SSE,162,7.0,7.0,44,0.00,,,0.00,0,Wunderground v.1.15,2013-02-18 03:47:00,
2013-02-17 21:52:00,52.4,31.1,29.88,South,180,7.0,10.0,44,0.00,,,0.00,0,Wunderground v.1.15,2013-02-18 03:52:00,
2013-02-17 22:02:00,52.3,31.6,29.88,SSE,150,8.0,8.0,45,0.00,,,0.00,0,Wunderground v.1.15,2013-02-18 04:02:00,
2013-02-17 22:12:00,52.4,31.7,29.88,South,172,8.0,8.0,45,0.00,,,0.00,0,Wunderground v.1.15,2013-02-18 04:12:00,
2013-02-17 22:22:00,52.2,31.5,29.87,SSW,192,8.0,8.0,45,0.00,,,0.00,0,Wunderground v.1.15,2013-02-18 04:22:00,
2013-02-17 22:27:00,52.4,31.7,29.87,SE,132,8.0,8.0,45,0.00,,,0.00,0,Wunderground v.1.15,2013-02-18 04:27:00,
2013-02-17 22:37:00,52.5,31.8,29.87,SSW,196,10.0,10.0,45,0.00,,,0.00,0,Wunderground v.1.15,2013-02-18 04:37:00,
2013-02-17 22:47:00,52.4,31.7,29.86,SE,140,11.0,11.0,45,0.00,,,0.00,0,Wunderground v.1.15,2013-02-18 04:47:00,
2013-02-17 22:57:00,52.0,31.8,29.86,South,172,10.0,10.0,46,0.00,,,0.00,0,Wunderground v.1.15,2013-02-18 04:57:00,
2013-02-17 23:02:00,51.9,31.7,29.86,South,188,9.0,10.0,46,0.00,,,0.00,0,Wunderground v.1.15,2013-02-18 05:02:00,
2013-02-17 23:07:00,51.9,32.3,29.86,SSW,196,9.0,15.0,47,0.00,,,0.00,0,Wunderground v.1.15,2013-02-18 05:07:00,
2013-02-17 23:12:00,51.8,32.2,29.86,SSE,163,10.0,15.0,47,0.00,,,0.00,0,Wunderground v.1.15,2013-02-18 05:12:00,
2013-02-17 23:22:00,51.6,32.5,29.86,SSW,195,9.0,10.0,48,0.00,,,0.00,0,Wunderground v.1.15,2013-02-18 05:22:00,
2013-02-17 23:27:00,51.4,32.3,29.86,South,184,9.0,9.0,48,0.00,,,0.00,0,Wunderground v.1.15,2013-02-18 05:27:00,
2013-02-17 23:37:00,51.3,32.8,29.86,South,178,10.0,10.0,49,0.00,,,0.00,0,Wunderground v.1.15,2013-02-18 05:37:00,
2013-02-17 23:42:00,51.3,32.8,29.86,SSE,165,10.0,10.0,49,0.00,,,0.00,0,Wunderground v.1.15,2013-02-18 05:42:00,
2013-02-17 23:47:00,51.4,32.9,29.86,SSW,205,10.0,10.0,49,0.00,,,0.00,0,Wunderground v.1.15,2013-02-18 05:47:00,
2013-02-17 23:58:00,51.5,33.0,29.86,SSE,166,10.0,10.0,49,0.00,,,0.00,0,Wunderground v.1.15,2013-02-18 05:58:00,